createdAt,value
2019-01-20T00:01:03.750Z,17.33
2019-01-20T00:03:35.045Z,17.77
2019-01-20T00:06:07.796Z,16.67
2019-01-20T00:08:38.913Z,17.40
2019-01-20T00:11:16.612Z,17.03
2019-01-20T00:13:43.078Z,16.63
2019-01-20T00:16:14.384Z,18.43
2019-01-20T00:18:45.594Z,17.77
2019-01-20T00:21:16.795Z,17.43
2019-01-20T00:23:48.075Z,17.07
2019-01-20T00:26:19.262Z,17.67
2019-01-20T00:28:50.514Z,17.13
2019-01-20T00:31:21.688Z,16.17
2019-01-20T00:33:52.845Z,15.10
2019-01-20T00:36:24.091Z,17.13
2019-01-20T00:38:55.326Z,16.93
2019-01-20T00:41:26.536Z,16.60
2019-01-20T00:43:57.760Z,15.70
2019-01-20T00:46:28.896Z,17.27
2019-01-20T00:49:00.292Z,15.73
2019-01-20T00:51:31.795Z,16.17
2019-01-20T00:54:02.972Z,16.73
2019-01-20T00:56:34.498Z,13.97
2019-01-20T00:59:05.641Z,14.67
2019-01-20T01:01:36.978Z,14.47
2019-01-20T01:04:08.193Z,16.73
2019-01-20T01:06:39.579Z,15.60
2019-01-20T01:09:10.887Z,14.90
2019-01-20T01:11:42.052Z,15.97
2019-01-20T01:14:13.579Z,15.03
2019-01-20T01:16:44.821Z,15.83
2019-01-20T01:19:16.097Z,14.47
2019-01-20T01:21:47.234Z,14.87
2019-01-20T01:24:18.453Z,14.87
2019-01-20T01:26:50.649Z,14.23
2019-01-20T01:29:21.805Z,15.47
2019-01-20T01:31:53.095Z,15.93
2019-01-20T01:34:24.312Z,15.40
2019-01-20T01:36:55.552Z,14.67
2019-01-20T01:39:26.776Z,15.13
2019-01-20T01:41:57.949Z,14.80
2019-01-20T01:44:29.126Z,14.07
2019-01-20T01:47:00.285Z,14.77
2019-01-20T01:49:31.525Z,14.60
2019-01-20T01:52:02.682Z,14.50
2019-01-20T01:54:33.891Z,14.33
2019-01-20T01:57:05.163Z,15.67
2019-01-20T01:59:36.307Z,14.57
2019-01-20T02:02:07.487Z,15.90
2019-01-20T02:04:38.666Z,14.13
2019-01-20T02:07:10.063Z,14.97
2019-01-20T02:09:41.335Z,13.27
2019-01-20T02:12:12.652Z,14.73
2019-01-20T02:14:43.932Z,15.43
2019-01-20T02:17:15.224Z,15.07
2019-01-20T02:19:46.404Z,14.07
2019-01-20T02:22:17.611Z,14.07
2019-01-20T02:24:48.909Z,15.03
2019-01-20T02:27:20.178Z,14.07
2019-01-20T02:29:51.383Z,14.53
2019-01-20T02:32:23.657Z,14.13
2019-01-20T02:34:54.909Z,14.27
2019-01-20T02:37:26.119Z,14.30
2019-01-20T02:39:57.325Z,15.70
2019-01-20T02:42:28.504Z,14.43
2019-01-20T02:44:59.793Z,15.33
2019-01-20T02:47:30.987Z,14.30
2019-01-20T02:50:02.195Z,14.30
2019-01-20T02:52:33.385Z,14.43
2019-01-20T02:55:05.096Z,13.93
2019-01-20T02:57:37.349Z,15.07
2019-01-20T03:00:20.167Z,14.80
2019-01-20T03:02:52.789Z,15.23
2019-01-20T03:05:24.715Z,14.50
2019-01-20T03:07:55.994Z,14.30
2019-01-20T03:10:27.243Z,15.03
2019-01-20T03:12:58.652Z,14.80
2019-01-20T03:15:29.960Z,15.27
2019-01-20T03:18:02.159Z,16.23
2019-01-20T03:20:33.491Z,15.67
2019-01-20T03:23:04.727Z,15.63
2019-01-20T03:25:35.961Z,16.37
2019-01-20T03:28:07.196Z,14.47
2019-01-20T03:30:38.399Z,15.63
2019-01-20T03:33:11.943Z,14.53
2019-01-20T03:35:46.105Z,15.70
2019-01-20T03:38:17.388Z,16.50
2019-01-20T03:40:48.674Z,15.13
2019-01-20T03:43:19.882Z,14.70
2019-01-20T03:45:51.122Z,16.27
2019-01-20T03:48:22.451Z,15.27
2019-01-20T03:50:53.684Z,15.37
2019-01-20T03:53:24.898Z,15.87
2019-01-20T03:55:56.100Z,17.40
2019-01-20T03:58:27.232Z,16.77
2019-01-20T04:00:58.601Z,15.43
2019-01-20T04:03:29.919Z,16.87
2019-01-20T04:06:01.180Z,16.80
2019-01-20T04:08:32.468Z,15.80
2019-01-20T04:11:03.912Z,16.40
2019-01-20T04:13:35.225Z,15.73
2019-01-20T04:16:06.476Z,15.43
2019-01-20T04:18:37.892Z,14.90
2019-01-20T04:21:09.200Z,15.03
2019-01-20T04:23:40.497Z,15.80
2019-01-20T04:26:11.731Z,16.80
2019-01-20T04:28:43.173Z,15.27
2019-01-20T04:31:14.327Z,15.20
2019-01-20T04:33:45.609Z,15.10
2019-01-20T04:36:16.895Z,14.60
2019-01-20T04:38:48.209Z,16.77
2019-01-20T04:41:19.425Z,15.77
2019-01-20T04:43:51.769Z,15.17
2019-01-20T04:46:23.068Z,15.77
2019-01-20T04:48:54.401Z,14.90
2019-01-20T04:51:25.675Z,15.47
2019-01-20T04:53:57.329Z,16.40
2019-01-20T04:56:28.676Z,16.37
2019-01-20T04:58:59.880Z,16.53
2019-01-20T05:01:31.152Z,14.80
2019-01-20T05:04:02.611Z,15.93
2019-01-20T05:06:33.852Z,16.77
2019-01-20T05:09:07.813Z,16.83
2019-01-20T05:11:39.031Z,16.10
2019-01-20T05:14:10.338Z,16.40
2019-01-20T05:16:41.541Z,17.13
2019-01-20T05:19:13.157Z,16.47
2019-01-20T05:21:44.369Z,16.03
2019-01-20T05:24:15.599Z,17.23
2019-01-20T05:26:46.883Z,15.90
2019-01-20T05:29:18.146Z,16.70
2019-01-20T05:31:49.368Z,16.57
2019-01-20T05:34:20.698Z,15.73
2019-01-20T05:36:52.190Z,16.20
2019-01-20T05:39:23.427Z,20.77
2019-01-20T05:41:54.950Z,18.20
2019-01-20T05:44:26.089Z,16.93
2019-01-20T05:46:57.282Z,16.90
2019-01-20T05:49:28.453Z,17.20
2019-01-20T05:51:59.794Z,16.03
2019-01-20T05:54:30.957Z,17.17
2019-01-20T05:57:02.216Z,15.47
2019-01-20T05:59:33.420Z,16.33
2019-01-20T06:02:04.690Z,17.07
2019-01-20T06:04:36.004Z,17.63
2019-01-20T06:07:07.415Z,17.63
2019-01-20T06:09:38.600Z,16.57
2019-01-20T06:12:09.931Z,16.43
2019-01-20T06:14:41.155Z,18.53
2019-01-20T06:17:12.396Z,17.03
2019-01-20T06:19:43.761Z,17.63
2019-01-20T06:22:15.074Z,16.70
2019-01-20T06:24:46.334Z,16.17
2019-01-20T06:27:17.567Z,17.97
2019-01-20T06:29:49.037Z,19.20
2019-01-20T06:32:20.467Z,16.97
2019-01-20T06:34:51.759Z,16.73
2019-01-20T06:37:23.086Z,16.43
2019-01-20T06:39:57.184Z,16.63
2019-01-20T06:42:28.421Z,18.13
2019-01-20T06:44:59.615Z,16.33
2019-01-20T06:47:30.883Z,17.43
2019-01-20T06:50:02.161Z,18.03
2019-01-20T06:52:34.421Z,17.90
2019-01-20T06:55:06.449Z,18.77
2019-01-20T06:57:37.773Z,18.67
2019-01-20T07:00:14.806Z,18.23
2019-01-20T07:02:46.089Z,17.17
2019-01-20T07:05:17.442Z,17.27
2019-01-20T07:07:49.004Z,19.43
2019-01-20T07:10:20.802Z,19.03
2019-01-20T07:12:52.153Z,18.00
2019-01-20T07:15:24.717Z,17.90
2019-01-20T07:17:55.912Z,19.67
2019-01-20T07:20:27.133Z,17.57
2019-01-20T07:22:58.341Z,17.70
2019-01-20T07:25:29.575Z,19.50
2019-01-20T07:28:01.001Z,18.53
2019-01-20T07:30:32.187Z,16.97
2019-01-20T07:33:05.057Z,18.40
2019-01-20T07:35:36.329Z,18.33
2019-01-20T07:38:07.694Z,18.43
2019-01-20T07:40:41.925Z,19.47
2019-01-20T07:43:17.034Z,20.30
2019-01-20T07:45:46.258Z,18.17
2019-01-20T07:48:17.614Z,20.10
2019-01-20T07:50:48.931Z,17.53
2019-01-20T07:53:20.124Z,18.63
2019-01-20T07:55:51.380Z,19.90
2019-01-20T07:58:22.566Z,19.20
2019-01-20T08:00:53.811Z,18.53
2019-01-20T08:03:25.035Z,16.97
2019-01-20T08:05:58.115Z,18.83
2019-01-20T08:08:29.348Z,18.83
2019-01-20T08:11:00.615Z,19.90
2019-01-20T08:13:31.785Z,18.20
2019-01-20T08:16:03.020Z,18.97
2019-01-20T08:18:34.443Z,19.43
2019-01-20T08:21:05.639Z,19.60
2019-01-20T08:23:36.834Z,19.37
2019-01-20T08:26:08.123Z,19.33
2019-01-20T08:28:39.414Z,19.37
2019-01-20T08:31:10.653Z,20.00
2019-01-20T08:33:42.001Z,19.50
2019-01-20T08:36:13.255Z,19.67
2019-01-20T08:38:44.557Z,19.03
2019-01-20T08:41:15.884Z,19.10
2019-01-20T08:43:47.282Z,21.07
2019-01-20T08:46:49.632Z,20.03
2019-01-20T08:49:20.867Z,19.97
2019-01-20T08:51:52.034Z,19.33
2019-01-20T08:54:23.370Z,19.47
2019-01-20T08:56:54.640Z,19.37
2019-01-20T08:59:25.910Z,20.37
2019-01-20T09:01:57.159Z,19.63
2019-01-20T09:04:28.406Z,21.43
2019-01-20T09:06:59.701Z,21.17
2019-01-20T09:09:30.948Z,21.83
2019-01-20T09:12:02.243Z,22.37
2019-01-20T09:14:33.430Z,22.57
2019-01-20T09:17:05.115Z,22.03
2019-01-20T09:19:36.415Z,22.13
2019-01-20T09:22:07.710Z,21.50
2019-01-20T09:24:39.308Z,21.60
2019-01-20T09:27:10.672Z,22.47
2019-01-20T09:29:41.918Z,23.17
2019-01-20T09:32:13.556Z,22.30
2019-01-20T09:34:44.865Z,24.00
2019-01-20T09:37:16.567Z,23.10
2019-01-20T09:39:47.863Z,25.10
2019-01-20T09:42:19.336Z,23.80
2019-01-20T09:44:50.563Z,25.37
2019-01-20T09:47:21.845Z,24.37
2019-01-20T09:49:53.335Z,25.10
2019-01-20T09:52:24.874Z,23.10
2019-01-20T09:54:56.077Z,23.90
2019-01-20T09:57:27.371Z,23.13
2019-01-20T09:59:58.582Z,23.77
2019-01-20T10:02:30.002Z,24.43
2019-01-20T10:05:02.457Z,24.50
2019-01-20T10:07:33.637Z,22.63
2019-01-20T10:10:05.892Z,24.13
2019-01-20T10:12:37.119Z,25.70
2019-01-20T10:15:09.758Z,25.30
2019-01-20T10:17:41.204Z,29.83
2019-01-20T10:20:18.624Z,33.73
2019-01-20T10:22:50.449Z,23.30
2019-01-20T10:25:22.668Z,24.20
2019-01-20T10:27:53.936Z,22.67
2019-01-20T10:30:30.552Z,23.53
2019-01-20T10:33:03.359Z,23.10
2019-01-20T10:35:52.550Z,23.43
2019-01-20T10:38:23.750Z,23.47
2019-01-20T10:40:54.986Z,24.47
2019-01-20T10:43:26.265Z,24.83
2019-01-20T10:45:57.521Z,24.07
2019-01-20T10:48:28.760Z,24.40
2019-01-20T10:51:00.024Z,22.83
2019-01-20T10:53:31.275Z,24.03
2019-01-20T10:56:02.440Z,23.37
2019-01-20T10:58:33.615Z,22.83
2019-01-20T11:01:04.904Z,22.57
2019-01-20T11:03:36.210Z,24.17
2019-01-20T11:06:07.379Z,23.53
2019-01-20T11:08:38.553Z,22.23
2019-01-20T11:11:09.896Z,22.13
2019-01-20T11:13:41.161Z,22.93
2019-01-20T11:16:13.208Z,22.43
2019-01-20T11:18:44.471Z,22.80
2019-01-20T11:21:15.737Z,22.53
2019-01-20T11:23:47.469Z,22.97
2019-01-20T11:26:19.371Z,22.60
2019-01-20T11:28:50.925Z,22.47
2019-01-20T11:31:22.219Z,31.33
2019-01-20T11:33:53.480Z,25.23
2019-01-20T11:36:24.671Z,21.17
2019-01-20T11:38:55.992Z,21.37
2019-01-20T11:41:28.455Z,22.53
2019-01-20T11:43:59.856Z,22.60
2019-01-20T11:46:31.080Z,22.57
2019-01-20T11:49:02.313Z,21.60
2019-01-20T11:51:33.494Z,21.90
2019-01-20T11:54:04.690Z,22.33
2019-01-20T11:56:35.935Z,22.90
2019-01-20T11:59:07.132Z,22.07
2019-01-20T12:01:38.419Z,21.83
2019-01-20T12:04:09.593Z,20.70
2019-01-20T12:06:40.796Z,21.67
2019-01-20T12:09:12.008Z,22.43
2019-01-20T12:11:43.198Z,22.07
2019-01-20T12:14:14.483Z,23.83
2019-01-20T12:16:45.674Z,21.57
2019-01-20T12:19:16.953Z,21.60
2019-01-20T12:21:48.293Z,22.53
2019-01-20T12:24:19.557Z,21.70
2019-01-20T12:26:50.898Z,21.93
2019-01-20T12:29:22.399Z,21.30
2019-01-20T12:31:53.662Z,20.63
2019-01-20T12:34:24.962Z,22.20
2019-01-20T12:36:56.193Z,21.93
2019-01-20T12:39:27.398Z,20.93
2019-01-20T12:41:58.611Z,23.20
2019-01-20T12:44:31.575Z,21.97
2019-01-20T12:47:03.057Z,29.93
2019-01-20T12:49:34.315Z,24.33
2019-01-20T12:52:05.631Z,23.30
2019-01-20T12:54:36.978Z,22.57
2019-01-20T12:57:08.208Z,22.93
2019-01-20T12:59:39.404Z,22.37
2019-01-20T13:02:10.650Z,22.03
2019-01-20T13:04:41.900Z,22.53
2019-01-20T13:07:13.239Z,22.10
2019-01-20T13:09:44.314Z,22.93
2019-01-20T13:12:15.545Z,23.20
2019-01-20T13:14:46.910Z,22.53
2019-01-20T13:17:18.267Z,22.37
2019-01-20T13:19:49.532Z,22.53
2019-01-20T13:22:20.689Z,22.80
2019-01-20T13:24:52.065Z,22.30
2019-01-20T13:27:23.264Z,21.97
2019-01-20T13:29:54.583Z,23.27
2019-01-20T13:32:25.792Z,23.27
2019-01-20T13:34:57.232Z,21.57
2019-01-20T13:37:28.444Z,21.70
2019-01-20T13:39:59.663Z,21.70
2019-01-20T13:42:31.449Z,22.57
2019-01-20T13:45:03.049Z,21.73
2019-01-20T13:47:34.228Z,22.57
2019-01-20T13:50:07.570Z,26.30
2019-01-20T13:52:38.823Z,29.57
2019-01-20T13:55:10.625Z,25.80
2019-01-20T13:57:42.757Z,22.57
2019-01-20T14:00:17.723Z,21.87
2019-01-20T14:02:49.971Z,23.33
2019-01-20T14:05:21.349Z,21.83
2019-01-20T14:07:52.632Z,22.93
2019-01-20T14:10:24.386Z,22.57
2019-01-20T14:12:55.646Z,22.70
2019-01-20T14:15:26.989Z,22.53
2019-01-20T14:17:58.348Z,22.57
2019-01-20T14:20:29.554Z,22.67
2019-01-20T14:23:00.757Z,21.90
2019-01-20T14:25:32.062Z,23.30
2019-01-20T14:28:03.370Z,23.13
2019-01-20T14:30:34.704Z,22.33
2019-01-20T14:33:06.029Z,21.70
2019-01-20T14:35:37.219Z,24.07
2019-01-20T14:38:08.496Z,22.73
2019-01-20T14:40:39.774Z,21.67
2019-01-20T14:43:11.130Z,22.77
2019-01-20T14:45:42.455Z,22.67
2019-01-20T14:48:13.707Z,23.93
2019-01-20T14:50:46.152Z,22.77
2019-01-20T14:53:18.401Z,22.40
2019-01-20T14:55:49.642Z,22.30
2019-01-20T14:58:20.939Z,22.70
2019-01-20T15:00:52.170Z,22.83
2019-01-20T15:03:23.469Z,60.37
2019-01-20T15:05:54.754Z,37.07
2019-01-20T15:08:26.023Z,24.67
2019-01-20T15:10:57.175Z,21.57
2019-01-20T15:13:28.785Z,20.53
2019-01-20T15:16:01.274Z,22.00
2019-01-20T15:18:32.749Z,21.40
2019-01-20T15:21:04.282Z,22.10
2019-01-20T15:23:35.536Z,22.57
2019-01-20T15:26:06.800Z,22.53
2019-01-20T15:28:38.412Z,22.37
2019-01-20T15:31:09.698Z,23.40
2019-01-20T15:33:40.992Z,23.97
2019-01-20T15:36:12.290Z,22.23
2019-01-20T15:38:43.644Z,23.00
2019-01-20T15:41:14.809Z,23.80
2019-01-20T15:43:46.138Z,24.80
2019-01-20T15:46:17.594Z,23.03
2019-01-20T15:48:48.892Z,23.13
2019-01-20T15:51:20.219Z,23.73
2019-01-20T15:53:51.438Z,23.63
2019-01-20T15:56:23.043Z,23.33
2019-01-20T15:58:54.570Z,22.70
2019-01-20T16:01:25.961Z,22.37
2019-01-20T16:03:57.795Z,22.93
2019-01-20T16:06:29.458Z,23.33
2019-01-20T16:09:01.443Z,23.17
2019-01-20T16:11:34.061Z,22.43
2019-01-20T16:14:05.774Z,22.50
2019-01-20T16:16:38.362Z,22.13
2019-01-20T16:19:09.848Z,22.57
2019-01-20T16:21:44.825Z,21.80
2019-01-20T16:24:25.132Z,22.67
2019-01-20T16:27:01.053Z,22.23
2019-01-20T16:29:31.914Z,24.07
2019-01-20T16:32:04.620Z,24.93
2019-01-20T16:34:36.385Z,57.40
2019-01-20T16:37:07.834Z,44.50
2019-01-20T16:39:45.652Z,28.63
2019-01-20T16:42:15.622Z,28.10
2019-01-20T16:44:47.085Z,24.63
2019-01-20T16:47:19.931Z,25.53
2019-01-20T16:49:51.093Z,25.97
2019-01-20T16:52:23.585Z,25.77
2019-01-20T16:54:55.022Z,25.40
2019-01-20T16:57:28.930Z,25.23
2019-01-20T17:00:12.390Z,24.40
2019-01-20T17:02:43.697Z,25.10
2019-01-20T17:05:14.952Z,24.70
2019-01-20T17:07:46.299Z,26.17
2019-01-20T17:10:20.016Z,26.17
2019-01-20T17:12:52.434Z,26.20
2019-01-20T17:15:26.199Z,28.00
2019-01-20T17:17:57.706Z,26.03
2019-01-20T17:20:29.445Z,25.33
2019-01-20T17:23:01.276Z,25.87
2019-01-20T17:25:32.981Z,25.97
2019-01-20T17:28:04.788Z,25.33
2019-01-20T17:30:36.765Z,26.60
2019-01-20T17:33:10.726Z,23.30
2019-01-20T17:35:42.278Z,24.77
2019-01-20T17:38:16.544Z,25.83
2019-01-20T17:40:50.295Z,26.50
2019-01-20T17:43:23.917Z,25.80
2019-01-20T17:45:55.320Z,25.57
2019-01-20T17:48:26.726Z,24.73
2019-01-20T17:51:00.276Z,25.10
2019-01-20T17:53:31.992Z,25.13
2019-01-20T17:56:03.351Z,26.60
2019-01-20T17:58:35.273Z,26.23
2019-01-20T18:01:08.387Z,26.47
2019-01-20T18:03:39.691Z,24.67
2019-01-20T18:06:10.912Z,26.17
2019-01-20T18:08:42.160Z,26.43
2019-01-20T18:11:13.809Z,25.83
2019-01-20T18:13:46.340Z,26.03
2019-01-20T18:16:17.603Z,25.73
2019-01-20T18:18:48.808Z,26.83
2019-01-20T18:21:20.008Z,25.20
2019-01-20T18:23:51.222Z,26.83
2019-01-20T18:26:22.420Z,25.37
2019-01-20T18:28:53.667Z,25.40
2019-01-20T18:31:25.086Z,27.37
2019-01-20T18:33:56.578Z,27.23
2019-01-20T18:36:27.837Z,25.97
2019-01-20T18:38:59.185Z,26.67
2019-01-20T18:41:30.882Z,26.60
2019-01-20T18:44:02.812Z,26.00
2019-01-20T18:46:34.104Z,27.97
2019-01-20T18:49:05.376Z,26.70
2019-01-20T18:51:36.599Z,27.07
2019-01-20T18:54:08.042Z,29.60
2019-01-20T18:56:39.482Z,27.93
2019-01-20T18:59:10.618Z,28.20
2019-01-20T19:01:41.834Z,27.93
2019-01-20T19:04:14.023Z,29.73
2019-01-20T19:06:45.501Z,27.30
2019-01-20T19:09:16.840Z,28.67
2019-01-20T19:11:48.057Z,28.90
2019-01-20T19:14:19.444Z,27.70
2019-01-20T19:16:50.867Z,26.87
2019-01-20T19:19:22.267Z,29.67
2019-01-20T19:21:53.594Z,30.07
2019-01-20T19:24:25.115Z,29.00
2019-01-20T19:26:57.499Z,27.80
2019-01-20T19:29:28.782Z,28.43
2019-01-20T19:32:00.062Z,30.07
2019-01-20T19:34:31.271Z,28.90
2019-01-20T19:37:02.548Z,28.70
2019-01-20T19:39:33.797Z,28.77
2019-01-20T19:42:05.017Z,28.73
2019-01-20T19:44:36.376Z,29.97
2019-01-20T19:47:07.616Z,31.83
2019-01-20T19:49:38.994Z,33.63
2019-01-20T19:52:10.260Z,32.27
2019-01-20T19:54:41.755Z,31.87
2019-01-20T19:57:13.150Z,29.27
2019-01-20T19:59:44.606Z,30.23
2019-01-20T20:02:15.999Z,31.60
2019-01-20T20:04:47.496Z,30.77
2019-01-20T20:07:18.701Z,31.47
2019-01-20T20:09:49.936Z,31.07
2019-01-20T20:12:21.255Z,30.80
2019-01-20T20:14:52.566Z,30.07
2019-01-20T20:17:23.782Z,30.67
2019-01-20T20:19:55.028Z,31.43
2019-01-20T20:22:27.683Z,33.23
2019-01-20T20:24:58.955Z,30.47
2019-01-20T20:27:30.235Z,30.73
2019-01-20T20:30:01.922Z,31.50
2019-01-20T20:32:33.478Z,32.23
2019-01-20T20:35:06.122Z,31.30
2019-01-20T20:37:37.843Z,33.37
2019-01-20T20:40:10.571Z,29.23
2019-01-20T20:42:41.879Z,30.53
2019-01-20T20:45:15.745Z,29.77
2019-01-20T20:47:47.490Z,29.50
2019-01-20T20:50:18.896Z,31.60
2019-01-20T20:52:50.392Z,32.07
2019-01-20T20:55:22.041Z,32.50
2019-01-20T20:57:54.502Z,30.67
2019-01-20T21:00:31.446Z,30.40
2019-01-20T21:03:04.897Z,28.70
2019-01-20T21:05:36.386Z,29.17
2019-01-20T21:08:08.641Z,30.57
2019-01-20T21:10:41.243Z,30.20
2019-01-20T21:13:13.888Z,30.43
2019-01-20T21:15:45.354Z,30.37
2019-01-20T21:18:16.729Z,29.90
2019-01-20T21:20:48.331Z,31.13
2019-01-20T21:23:19.701Z,29.67
2019-01-20T21:25:51.150Z,28.87
2019-01-20T21:28:22.339Z,29.80
2019-01-20T21:30:53.530Z,29.97
2019-01-20T21:33:24.903Z,28.47
2019-01-20T21:35:56.211Z,29.80
2019-01-20T21:38:27.517Z,29.73
2019-01-20T21:40:58.766Z,29.80
2019-01-20T21:43:30.062Z,28.27
2019-01-20T21:46:01.232Z,28.83
2019-01-20T21:48:32.580Z,27.47
2019-01-20T21:51:04.155Z,27.37
2019-01-20T21:53:35.436Z,28.30
2019-01-20T21:56:06.827Z,28.17
2019-01-20T21:58:38.187Z,30.27
2019-01-20T22:01:09.569Z,29.53
2019-01-20T22:03:40.857Z,28.30
2019-01-20T22:06:12.094Z,29.17
2019-01-20T22:08:43.602Z,28.60
2019-01-20T22:11:15.161Z,28.70
2019-01-20T22:13:48.101Z,28.07
2019-01-20T22:16:19.270Z,27.10
2019-01-20T22:18:50.558Z,27.53
2019-01-20T22:21:22.249Z,27.97
2019-01-20T22:23:53.497Z,27.43
2019-01-20T22:26:24.761Z,28.47
2019-01-20T22:28:55.925Z,27.87
2019-01-20T22:31:28.338Z,29.43
2019-01-20T22:33:59.582Z,28.47
2019-01-20T22:36:30.879Z,26.80
2019-01-20T22:39:02.229Z,28.73
2019-01-20T22:41:35.052Z,31.37
2019-01-20T22:44:06.431Z,27.17
2019-01-20T22:46:37.792Z,28.63
2019-01-20T22:49:09.115Z,28.50
2019-01-20T22:51:40.332Z,30.27
2019-01-20T22:54:11.800Z,28.60
2019-01-20T22:56:43.032Z,27.70
2019-01-20T22:59:14.254Z,27.93
2019-01-20T23:01:45.791Z,28.50
2019-01-20T23:04:17.345Z,29.33
2019-01-20T23:06:49.057Z,29.17
2019-01-20T23:09:21.285Z,28.07
2019-01-20T23:11:52.613Z,27.70
2019-01-20T23:14:23.891Z,27.63
2019-01-20T23:16:55.261Z,26.47
2019-01-20T23:19:26.620Z,26.50
2019-01-20T23:21:58.059Z,29.80
2019-01-20T23:24:29.342Z,27.83
2019-01-20T23:27:01.743Z,29.57
2019-01-20T23:29:33.995Z,27.63
2019-01-20T23:32:05.324Z,26.83
2019-01-20T23:34:36.634Z,27.73
2019-01-20T23:37:07.816Z,28.73
2019-01-20T23:39:39.034Z,26.87
2019-01-20T23:42:10.207Z,27.23
2019-01-20T23:44:41.413Z,25.43
2019-01-20T23:47:15.271Z,25.73
2019-01-20T23:49:45.655Z,27.80
2019-01-20T23:52:16.942Z,28.60
2019-01-20T23:54:48.224Z,28.07
2019-01-20T23:57:19.478Z,26.17
2019-01-20T23:59:50.764Z,27.67
